BAW256 VIDP-EGLL
Flight info
| Callsign | BAW256 |
|---|---|
| Flight time | N/A |
| Altitude | 34000 |
| Route | SURAM7A SURAM G333 MERUN L750 ZB/N0491F360 L750 RANAH B449 MAMED B450 BIBIM A909 RODAR M11 ERLEV L850 ADEKI DCT BADIR DCT LAGAS/N0488F380 DCT FOQUS DCT SARPI UM10 GOKPA UL746 ODERO DCT LUGEB DCT SOKRU DCT DEGET DCT OGVUN DCT ABETI DCT RENKA DCT INBED DCT BOMBI DCT ADKUV DCT SOGRI DCT DENUT L608 LOGAN |
| Aircraft | B77W/H-SDE1E2E3FGHIJ2J3J4J5M1RWXY/LB1D1 |
Departure
| Time | N/A |
|---|---|
| Airport | Indira Gandhi International Airport (VIDP) |
Arrival
| Time | 2026-05-06 08:19 |
|---|---|
| Airport | London Heathrow Airport (EGLL) |
| Time | Latitude | Longitude | Altitude | Speed | Heading |
|---|---|---|---|---|---|
| 2026-05-06 07:43 | 51.47414 | 2.82017 | 34785 ft | 445 kts | 290° |
| 2026-05-06 07:43 | 51.48492 | 2.77374 | 34319 ft | 441 kts | 290° |
| 2026-05-06 07:43 | 51.49542 | 2.72839 | 33854 ft | 438 kts | 290° |
| 2026-05-06 07:43 | 51.50597 | 2.68278 | 33306 ft | 434 kts | 290° |
| 2026-05-06 07:44 | 51.51646 | 2.63734 | 32812 ft | 430 kts | 290° |
| 2026-05-06 07:44 | 51.52680 | 2.59243 | 32356 ft | 426 kts | 289° |
| 2026-05-06 07:44 | 51.53703 | 2.54794 | 31872 ft | 422 kts | 289° |
| 2026-05-06 07:44 | 51.54704 | 2.50429 | 31423 ft | 418 kts | 289° |
| 2026-05-06 07:45 | 51.55701 | 2.46061 | 30969 ft | 415 kts | 289° |
| 2026-05-06 07:45 | 51.56687 | 2.41714 | 30518 ft | 412 kts | 289° |
| 2026-05-06 07:45 | 51.57667 | 2.37383 | 30062 ft | 409 kts | 289° |
| 2026-05-06 07:45 | 51.58641 | 2.33086 | 29560 ft | 406 kts | 289° |
| 2026-05-06 07:46 | 51.59597 | 2.28887 | 29097 ft | 402 kts | 289° |
| 2026-05-06 07:46 | 51.60559 | 2.24662 | 28640 ft | 399 kts | 289° |
| 2026-05-06 07:46 | 51.61507 | 2.20497 | 28182 ft | 395 kts | 289° |
| 2026-05-06 07:46 | 51.62449 | 2.16347 | 27722 ft | 392 kts | 289° |
| 2026-05-06 07:47 | 51.63378 | 2.12239 | 27264 ft | 389 kts | 289° |
| 2026-05-06 07:47 | 51.64286 | 2.08218 | 26835 ft | 386 kts | 289° |
| 2026-05-06 07:47 | 51.65201 | 2.04162 | 26402 ft | 383 kts | 289° |
| 2026-05-06 07:47 | 51.66112 | 2.00127 | 25957 ft | 381 kts | 288° |
| 2026-05-06 07:48 | 51.67013 | 1.96124 | 25523 ft | 378 kts | 288° |
| 2026-05-06 07:48 | 51.67908 | 1.92139 | 25098 ft | 376 kts | 288° |
| 2026-05-06 07:48 | 51.68785 | 1.88228 | 24678 ft | 374 kts | 288° |
| 2026-05-06 07:48 | 51.69667 | 1.84287 | 24250 ft | 373 kts | 288° |
| 2026-05-06 07:49 | 51.70544 | 1.80363 | 23830 ft | 371 kts | 288° |
| 2026-05-06 07:49 | 51.71415 | 1.76453 | 23380 ft | 370 kts | 288° |
| 2026-05-06 07:49 | 51.72285 | 1.72548 | 22899 ft | 368 kts | 288° |
| 2026-05-06 07:49 | 51.73149 | 1.68663 | 22446 ft | 366 kts | 288° |
| 2026-05-06 07:50 | 51.74003 | 1.64811 | 22018 ft | 363 kts | 288° |
| 2026-05-06 07:50 | 51.74689 | 1.60928 | 21576 ft | 355 kts | 276° |
| 2026-05-06 07:50 | 51.74643 | 1.57045 | 21201 ft | 348 kts | 264° |
| 2026-05-06 07:50 | 51.74377 | 1.53166 | 20784 ft | 346 kts | 263° |
| 2026-05-06 07:51 | 51.74097 | 1.49317 | 20376 ft | 344 kts | 263° |
| 2026-05-06 07:51 | 51.73820 | 1.45471 | 19973 ft | 343 kts | 263° |
| 2026-05-06 07:51 | 51.73552 | 1.41643 | 19562 ft | 341 kts | 264° |
| 2026-05-06 07:51 | 51.73292 | 1.37838 | 19153 ft | 340 kts | 264° |
| 2026-05-06 07:52 | 51.73036 | 1.34049 | 18747 ft | 339 kts | 264° |
| 2026-05-06 07:52 | 51.72785 | 1.30304 | 18356 ft | 338 kts | 264° |
| 2026-05-06 07:52 | 51.72533 | 1.26536 | 17922 ft | 338 kts | 264° |
| 2026-05-06 07:52 | 51.72281 | 1.22771 | 17468 ft | 336 kts | 264° |
| 2026-05-06 07:53 | 51.72029 | 1.19034 | 17051 ft | 335 kts | 264° |
| 2026-05-06 07:53 | 51.71777 | 1.15304 | 16645 ft | 333 kts | 264° |
| 2026-05-06 07:53 | 51.71526 | 1.11607 | 16247 ft | 331 kts | 264° |
| 2026-05-06 07:53 | 51.71275 | 1.07925 | 15844 ft | 329 kts | 264° |
| 2026-05-06 07:54 | 51.71028 | 1.04298 | 15461 ft | 328 kts | 264° |
| 2026-05-06 07:54 | 51.70776 | 1.00637 | 15067 ft | 326 kts | 264° |
| 2026-05-06 07:54 | 51.70524 | 0.97004 | 14680 ft | 325 kts | 264° |
| 2026-05-06 07:54 | 51.70273 | 0.93385 | 14297 ft | 324 kts | 264° |
| 2026-05-06 07:55 | 51.70022 | 0.89769 | 13906 ft | 323 kts | 264° |
| 2026-05-06 07:55 | 51.69856 | 0.87389 | 13648 ft | 323 kts | 264° |
| 2026-05-06 07:55 | 51.69523 | 0.82623 | 13081 ft | 322 kts | 264° |
| 2026-05-06 07:55 | 51.69273 | 0.79038 | 12673 ft | 320 kts | 264° |
| 2026-05-06 07:56 | 51.69104 | 0.76635 | 12411 ft | 319 kts | 264° |
| 2026-05-06 07:56 | 51.68856 | 0.73123 | 12026 ft | 318 kts | 264° |
| 2026-05-06 07:56 | 51.68603 | 0.69580 | 11666 ft | 317 kts | 265° |
| 2026-05-06 07:56 | 51.68351 | 0.66040 | 11415 ft | 319 kts | 264° |
| 2026-05-06 07:57 | 51.68097 | 0.62492 | 11188 ft | 325 kts | 265° |
| 2026-05-06 07:57 | 51.67835 | 0.58847 | 10937 ft | 327 kts | 265° |
| 2026-05-06 07:57 | 51.67572 | 0.55199 | 10691 ft | 326 kts | 265° |
| 2026-05-06 07:57 | 51.67309 | 0.51584 | 10440 ft | 323 kts | 265° |
| 2026-05-06 07:58 | 51.67046 | 0.47993 | 10190 ft | 320 kts | 265° |
| 2026-05-06 07:58 | 51.66790 | 0.44507 | 9936 ft | 314 kts | 265° |
| 2026-05-06 07:58 | 51.66535 | 0.41056 | 9738 ft | 305 kts | 265° |
| 2026-05-06 07:58 | 51.66288 | 0.37711 | 9611 ft | 295 kts | 265° |
| 2026-05-06 07:59 | 51.66048 | 0.34473 | 9440 ft | 287 kts | 265° |
| 2026-05-06 07:59 | 51.65814 | 0.31336 | 9156 ft | 284 kts | 265° |
| 2026-05-06 07:59 | 51.65584 | 0.28244 | 8913 ft | 279 kts | 265° |
| 2026-05-06 07:59 | 51.65354 | 0.25146 | 8631 ft | 277 kts | 266° |
| 2026-05-06 08:00 | 51.65123 | 0.22064 | 8370 ft | 277 kts | 266° |
| 2026-05-06 08:00 | 51.64891 | 0.18992 | 8111 ft | 275 kts | 266° |
| 2026-05-06 08:00 | 51.64659 | 0.15935 | 7859 ft | 273 kts | 266° |
| 2026-05-06 08:00 | 51.64457 | 0.12942 | 7606 ft | 271 kts | 268° |
| 2026-05-06 08:01 | 51.64290 | 0.09941 | 7357 ft | 269 kts | 268° |
| 2026-05-06 08:01 | 51.64129 | 0.06945 | 7112 ft | 267 kts | 268° |
| 2026-05-06 08:01 | 51.63971 | 0.03997 | 7052 ft | 264 kts | 269° |
| 2026-05-06 08:01 | 51.63813 | 0.01065 | 7009 ft | 266 kts | 269° |
| 2026-05-06 08:02 | 51.63651 | -0.01897 | 7001 ft | 265 kts | 269° |
| 2026-05-06 08:02 | 51.63487 | -0.04859 | 6991 ft | 266 kts | 269° |
| 2026-05-06 08:02 | 51.63321 | -0.07834 | 6993 ft | 266 kts | 268° |
| 2026-05-06 08:02 | 51.63156 | -0.10780 | 6997 ft | 267 kts | 269° |
| 2026-05-06 08:03 | 51.62987 | -0.13758 | 6989 ft | 266 kts | 268° |
| 2026-05-06 08:03 | 51.62817 | -0.16733 | 6995 ft | 267 kts | 268° |
| 2026-05-06 08:03 | 51.62647 | -0.19708 | 7003 ft | 267 kts | 268° |
| 2026-05-06 08:03 | 51.62476 | -0.22686 | 6999 ft | 267 kts | 268° |
| 2026-05-06 08:04 | 51.62304 | -0.25669 | 6997 ft | 267 kts | 268° |
| 2026-05-06 08:04 | 51.62133 | -0.28610 | 7008 ft | 267 kts | 268° |
| 2026-05-06 08:04 | 51.61960 | -0.31587 | 7000 ft | 267 kts | 268° |
| 2026-05-06 08:04 | 51.61786 | -0.34558 | 6992 ft | 267 kts | 268° |
| 2026-05-06 08:05 | 51.61624 | -0.37312 | 7008 ft | 267 kts | 268° |
| 2026-05-06 08:05 | 51.61448 | -0.40286 | 6996 ft | 267 kts | 268° |
| 2026-05-06 08:05 | 51.61272 | -0.43263 | 7001 ft | 267 kts | 268° |
| 2026-05-06 08:05 | 51.61094 | -0.46243 | 6998 ft | 268 kts | 268° |
| 2026-05-06 08:06 | 51.60917 | -0.49188 | 6988 ft | 258 kts | 268° |
| 2026-05-06 08:06 | 51.60747 | -0.51996 | 6973 ft | 246 kts | 268° |
| 2026-05-06 08:06 | 51.60588 | -0.54630 | 6981 ft | 234 kts | 268° |
| 2026-05-06 08:06 | 51.60433 | -0.57210 | 6985 ft | 231 kts | 268° |
| 2026-05-06 08:07 | 51.60250 | -0.59803 | 7001 ft | 235 kts | 266° |
| 2026-05-06 08:07 | 51.60031 | -0.62421 | 6981 ft | 236 kts | 266° |
| 2026-05-06 08:07 | 51.59812 | -0.65039 | 7001 ft | 236 kts | 265° |
| 2026-05-06 08:07 | 51.59592 | -0.67646 | 6943 ft | 235 kts | 266° |
| 2026-05-06 08:08 | 51.59371 | -0.70219 | 6737 ft | 233 kts | 265° |
| 2026-05-06 08:08 | 51.59148 | -0.72798 | 6486 ft | 233 kts | 265° |
| 2026-05-06 08:08 | 51.58924 | -0.75383 | 6221 ft | 232 kts | 266° |
| 2026-05-06 08:08 | 51.58697 | -0.77953 | 5951 ft | 231 kts | 266° |
| 2026-05-06 08:09 | 51.58468 | -0.80527 | 5619 ft | 233 kts | 266° |
| 2026-05-06 08:09 | 51.58235 | -0.83119 | 5326 ft | 234 kts | 266° |
| 2026-05-06 08:09 | 51.57999 | -0.85691 | 5077 ft | 236 kts | 265° |
| 2026-05-06 08:09 | 51.57758 | -0.88304 | 4825 ft | 235 kts | 265° |
| 2026-05-06 08:10 | 51.57514 | -0.90889 | 4630 ft | 233 kts | 265° |
| 2026-05-06 08:10 | 51.57273 | -0.93438 | 4436 ft | 228 kts | 265° |
| 2026-05-06 08:10 | 51.57034 | -0.95928 | 4240 ft | 223 kts | 265° |
| 2026-05-06 08:10 | 51.56799 | -0.98353 | 4095 ft | 214 kts | 262° |
| 2026-05-06 08:11 | 51.56159 | -1.00485 | 4015 ft | 216 kts | 227° |
| 2026-05-06 08:11 | 51.54863 | -1.01658 | 4041 ft | 217 kts | 191° |
| 2026-05-06 08:11 | 51.53364 | -1.01897 | 4037 ft | 213 kts | 182° |
| 2026-05-06 08:11 | 51.51905 | -1.01971 | 4060 ft | 207 kts | 178° |
| 2026-05-06 08:12 | 51.50558 | -1.01403 | 4015 ft | 201 kts | 142° |
| 2026-05-06 08:12 | 51.49636 | -0.99780 | 4046 ft | 196 kts | 121° |
| 2026-05-06 08:12 | 51.48844 | -0.97964 | 4039 ft | 199 kts | 121° |
| 2026-05-06 08:12 | 51.48064 | -0.96183 | 4014 ft | 195 kts | 118° |
| 2026-05-06 08:13 | 51.47652 | -0.94208 | 4015 ft | 183 kts | 86° |
| 2026-05-06 08:13 | 51.47653 | -0.92126 | 4054 ft | 192 kts | 86° |
| 2026-05-06 08:13 | 51.47625 | -0.89989 | 4035 ft | 190 kts | 86° |
| 2026-05-06 08:13 | 51.47616 | -0.87873 | 4014 ft | 190 kts | 85° |
| 2026-05-06 08:14 | 51.47617 | -0.85760 | 4022 ft | 188 kts | 84° |
| 2026-05-06 08:14 | 51.47622 | -0.83662 | 4021 ft | 187 kts | 84° |
| 2026-05-06 08:14 | 51.47629 | -0.81579 | 4006 ft | 187 kts | 84° |
| 2026-05-06 08:14 | 51.47637 | -0.79530 | 3971 ft | 185 kts | 84° |
| 2026-05-06 08:15 | 51.47645 | -0.77455 | 3701 ft | 185 kts | 84° |
| 2026-05-06 08:15 | 51.47651 | -0.75408 | 3469 ft | 183 kts | 84° |
| 2026-05-06 08:15 | 51.47656 | -0.73923 | 3280 ft | 181 kts | 84° |
| 2026-05-06 08:15 | 51.47664 | -0.71906 | 3035 ft | 179 kts | 85° |
| 2026-05-06 08:16 | 51.47671 | -0.69930 | 2802 ft | 177 kts | 85° |
| 2026-05-06 08:16 | 51.47679 | -0.67981 | 2557 ft | 176 kts | 85° |
| 2026-05-06 08:16 | 51.47685 | -0.66019 | 2297 ft | 175 kts | 85° |
| 2026-05-06 08:16 | 51.47693 | -0.64061 | 2072 ft | 176 kts | 85° |
| 2026-05-06 08:17 | 51.47699 | -0.62121 | 1846 ft | 166 kts | 85° |
| 2026-05-06 08:17 | 51.47704 | -0.60336 | 1585 ft | 154 kts | 85° |
| 2026-05-06 08:17 | 51.47710 | -0.58712 | 1370 ft | 138 kts | 84° |
| 2026-05-06 08:17 | 51.47717 | -0.57172 | 1220 ft | 137 kts | 83° |
| 2026-05-06 08:18 | 51.47723 | -0.55642 | 1011 ft | 137 kts | 85° |
| 2026-05-06 08:18 | 51.47728 | -0.54123 | 806 ft | 137 kts | 84° |
| 2026-05-06 08:18 | 51.47732 | -0.52573 | 634 ft | 139 kts | 85° |
| 2026-05-06 08:18 | 51.47748 | -0.51037 | 406 ft | 135 kts | 83° |
| 2026-05-06 08:19 | 51.47746 | -0.49542 | 251 ft | 140 kts | 84° |
| 2026-05-06 08:19 | 51.47747 | -0.48010 | 94 ft | 139 kts | 85° |
| 2026-05-06 08:19 | 51.47757 | -0.46653 | 98 ft | 97 kts | 90° |
| 2026-05-06 08:19 | 51.47760 | -0.45866 | 92 ft | 48 kts | 89° |
| 2026-05-06 08:20 | 51.47762 | -0.45574 | 92 ft | 14 kts | 96° |
| 2026-05-06 08:20 | 51.47706 | -0.45472 | 93 ft | 12 kts | 167° |
| 2026-05-06 08:20 | 51.47628 | -0.45468 | 91 ft | 11 kts | 184° |
| 2026-05-06 08:20 | 51.47595 | -0.45553 | 96 ft | 10 kts | 268° |
| 2026-05-06 08:21 | 51.47595 | -0.45672 | 95 ft | 11 kts | 270° |
| 2026-05-06 08:21 | 51.47595 | -0.45804 | 95 ft | 12 kts | 270° |
| 2026-05-06 08:21 | 51.47595 | -0.45950 | 95 ft | 14 kts | 270° |
| 2026-05-06 08:21 | 51.47594 | -0.46119 | 95 ft | 16 kts | 269° |
| 2026-05-06 08:22 | 51.47594 | -0.46300 | 95 ft | 17 kts | 269° |
| 2026-05-06 08:22 | 51.47593 | -0.46486 | 95 ft | 17 kts | 270° |
| 2026-05-06 08:22 | 51.47592 | -0.46682 | 92 ft | 18 kts | 270° |
| 2026-05-06 08:22 | 51.47591 | -0.46883 | 92 ft | 18 kts | 268° |
| 2026-05-06 08:23 | 51.47583 | -0.47084 | 95 ft | 18 kts | 267° |
| 2026-05-06 08:23 | 51.47581 | -0.47254 | 95 ft | 11 kts | 270° |
| 2026-05-06 08:23 | 51.47557 | -0.47349 | 95 ft | 9 kts | 207° |
| 2026-05-06 08:23 | 51.47487 | -0.47357 | 92 ft | 11 kts | 180° |
| 2026-05-06 08:24 | 51.47408 | -0.47357 | 92 ft | 12 kts | 180° |
| 2026-05-06 08:24 | 51.47319 | -0.47357 | 92 ft | 13 kts | 180° |
| 2026-05-06 08:24 | 51.47221 | -0.47356 | 92 ft | 15 kts | 180° |
| 2026-05-06 08:24 | 51.47116 | -0.47355 | 95 ft | 13 kts | 180° |
| 2026-05-06 08:25 | 51.47066 | -0.47371 | 95 ft | 7 kts | 219° |
| 2026-05-06 08:25 | 51.47056 | -0.47425 | 95 ft | 6 kts | 263° |
| 2026-05-06 08:25 | 51.47054 | -0.47483 | 92 ft | 4 kts | 269° |
| 2026-05-06 08:25 | 51.47054 | -0.47500 | 93 ft | 0 kts | 269° |